Time;durP1;ratioP1;P1;durP2;ratioP2;P2;SDS_P1;SDS_P2;PMS_P1;PMS_P2;Temp;Humidity;BMP_temperature;BMP_pressure;BME280_temperature;BME280_humidity;BME280_pressure;Samples;Min_cycle;Max_cycle;Signal;HPM_P1;HPM_P2
2023/12/20 00:01:21;;;;;;;3.60;2.63;;;;;;;0.82;100.00;98503.72;5112682;28;20044;-64
2023/12/20 00:03:47;;;;;;;8.67;2.60;;;;;;;0.85;100.00;98492.94;5112963;28;20285;-66
2023/12/20 00:06:13;;;;;;;7.47;3.30;;;;;;;0.77;100.00;98468.50;5113481;28;20330;-63
2023/12/20 00:08:38;;;;;;;7.07;3.03;;;;;;;0.85;100.00;98471.16;5114039;28;20027;-65
2023/12/20 00:11:04;;;;;;;4.10;3.03;;;;;;;0.98;100.00;98484.66;5114578;28;20038;-65
2023/12/20 00:13:29;;;;;;;3.97;3.03;;;;;;;0.90;100.00;98471.53;5114347;28;20130;-63
2023/12/20 00:15:56;;;;;;;6.97;2.93;;;;;;;0.88;100.00;98471.69;5114443;28;20522;-63
2023/12/20 00:18:22;;;;;;;6.07;2.77;;;;;;;0.78;100.00;98460.47;5113801;28;20096;-62
2023/12/20 00:20:47;;;;;;;5.63;2.70;;;;;;;1.02;100.00;98474.69;5114053;28;20258;-65
2023/12/20 00:23:13;;;;;;;3.97;2.90;;;;;;;1.01;100.00;98476.47;5113812;28;20032;-63
2023/12/20 00:25:38;;;;;;;5.33;2.63;;;;;;;0.85;100.00;98453.63;5113721;28;20065;-61
2023/12/20 00:28:04;;;;;;;4.47;3.10;;;;;;;1.01;100.00;98467.78;5114029;28;20031;-64
2023/12/20 00:30:29;;;;;;;5.57;3.77;;;;;;;0.97;100.00;98466.47;5114226;28;20031;-62
2023/12/20 00:32:56;;;;;;;5.40;2.83;;;;;;;0.82;100.00;98442.66;5114254;27;20032;-62
2023/12/20 00:35:21;;;;;;;5.30;3.10;;;;;;;0.81;100.00;98441.81;5114211;28;20059;-62
2023/12/20 00:37:47;;;;;;;3.83;2.40;;;;;;;0.92;100.00;98454.66;5113589;28;20755;-62
2023/12/20 00:40:12;;;;;;;4.27;2.60;;;;;;;0.91;100.00;98446.97;5113647;28;20031;-65
2023/12/20 00:42:38;;;;;;;4.40;2.40;;;;;;;0.93;100.00;98450.25;5113294;28;20040;-62
2023/12/20 00:45:04;;;;;;;7.53;2.53;;;;;;;1.04;100.00;98462.22;5113280;28;20031;-64
2023/12/20 00:47:31;;;;;;;3.00;2.30;;;;;;;0.96;100.00;98447.31;5113304;28;20035;-65
2023/12/20 00:49:58;;;;;;;5.93;2.63;;;;;;;0.96;100.00;98443.88;5113651;28;20264;-65
2023/12/20 00:52:23;;;;;;;7.23;2.60;;;;;;;0.96;100.00;98438.63;5113487;28;20038;-64
2023/12/20 00:54:49;;;;;;;5.97;2.67;;;;;;;1.07;100.00;98464.53;5113413;28;20258;-64
2023/12/20 00:57:15;;;;;;;4.27;1.90;;;;;;;0.89;100.00;98434.03;5113383;28;20027;-62
2023/12/20 00:59:40;;;;;;;3.53;1.97;;;;;;;0.75;100.00;98416.25;5112973;28;20410;-65
2023/12/20 01:02:06;;;;;;;3.70;1.87;;;;;;;1.07;100.00;98446.19;5112839;28;20078;-63
2023/12/20 01:04:31;;;;;;;6.13;2.30;;;;;;;1.05;100.00;98428.00;5113053;28;20171;-62
2023/12/20 01:06:57;;;;;;;4.73;2.60;;;;;;;0.90;100.00;98392.91;5113040;28;20027;-63
2023/12/20 01:09:28;;;;;;;4.37;2.33;;;;;;;0.89;100.00;98392.09;5112878;28;20167;-61
2023/12/20 01:11:54;;;;;;;4.40;2.13;;;;;;;1.08;100.00;98439.97;5112840;28;20087;-62
2023/12/20 01:14:20;;;;;;;4.63;2.30;;;;;;;0.69;100.00;98385.47;5112174;28;20261;-62
2023/12/20 01:16:45;;;;;;;5.33;2.60;;;;;;;0.83;100.00;98407.59;5112627;28;20059;-63
2023/12/20 01:19:11;;;;;;;6.43;2.33;;;;;;;1.02;100.00;98458.94;5111011;28;20047;-63
2023/12/20 01:21:37;;;;;;;3.13;2.00;;;;;;;0.90;100.00;98446.13;5112785;28;20035;-62
2023/12/20 01:24:02;;;;;;;4.47;2.20;;;;;;;0.93;100.00;98440.59;5113369;28;20638;-63
2023/12/20 01:26:28;;;;;;;2.80;2.00;;;;;;;1.09;100.00;98450.28;5112695;28;20035;-65
2023/12/20 01:28:54;;;;;;;4.50;1.90;;;;;;;1.15;100.00;98451.44;5112341;28;20035;-64
2023/12/20 01:31:19;;;;;;;5.57;1.90;;;;;;;1.17;100.00;98462.63;5112598;28;20027;-63
2023/12/20 01:33:45;;;;;;;4.50;1.73;;;;;;;1.08;100.00;98424.22;5112813;28;20115;-63
2023/12/20 01:36:11;;;;;;;2.80;1.70;;;;;;;1.09;100.00;98413.59;5112736;28;20036;-62
2023/12/20 01:38:37;;;;;;;4.73;2.30;;;;;;;0.99;100.00;98402.44;5112540;28;20478;-63
2023/12/20 01:41:03;;;;;;;3.37;1.80;;;;;;;1.04;100.00;98415.06;5111349;28;20084;-63
2023/12/20 01:43:29;;;;;;;5.73;1.60;;;;;;;0.96;100.00;98420.28;5112408;28;20274;-62
2023/12/20 01:45:57;;;;;;;4.33;1.60;;;;;;;0.89;100.00;98409.63;5112218;28;20382;-65
2023/12/20 01:48:24;;;;;;;4.23;1.77;;;;;;;0.97;100.00;98429.78;5110766;28;20265;-62
2023/12/20 01:50:50;;;;;;;3.80;1.90;;;;;;;0.88;100.00;98424.50;5112142;28;20272;-64
2023/12/20 01:53:18;;;;;;;5.30;2.00;;;;;;;0.80;100.00;98432.31;5110672;28;20747;-63
2023/12/20 01:55:44;;;;;;;4.33;2.27;;;;;;;0.78;100.00;98428.22;5111671;28;20636;-62
2023/12/20 01:58:12;;;;;;;2.60;1.83;;;;;;;0.76;100.00;98428.38;5112085;28;20326;-64
2023/12/20 02:00:38;;;;;;;4.37;1.70;;;;;;;0.79;100.00;98430.69;5111702;28;20341;-64
2023/12/20 02:03:04;;;;;;;3.90;1.30;;;;;;;0.45;100.00;98352.13;5112278;28;20356;-63
2023/12/20 02:05:30;;;;;;;4.27;1.67;;;;;;;0.77;100.00;98411.69;5110858;28;20376;-63
2023/12/20 02:07:56;;;;;;;3.87;1.80;;;;;;;0.93;100.00;98427.47;5110672;28;20062;-64
2023/12/20 02:10:22;;;;;;;3.33;1.60;;;;;;;0.93;100.00;98409.13;5112155;28;20266;-63
2023/12/20 02:12:48;;;;;;;5.70;1.47;;;;;;;0.68;100.00;98375.13;5110561;28;20374;-63
2023/12/20 02:15:15;;;;;;;3.60;1.90;;;;;;;0.95;100.00;98421.25;5111714;28;20269;-62
2023/12/20 02:17:42;;;;;;;7.27;1.40;;;;;;;0.84;100.00;98409.25;5110603;28;20047;-63
2023/12/20 02:20:07;;;;;;;3.37;1.70;;;;;;;0.88;100.00;98415.84;5111637;28;20297;-65
2023/12/20 02:22:33;;;;;;;4.93;1.57;;;;;;;0.83;100.00;98405.81;5112187;28;20743;-63
2023/12/20 02:24:59;;;;;;;4.10;2.03;;;;;;;0.89;100.00;98420.91;5111601;28;20046;-63
2023/12/20 02:27:24;;;;;;;2.00;1.63;;;;;;;0.96;100.00;98425.53;5114605;28;20107;-64
2023/12/20 02:29:50;;;;;;;2.10;1.30;;;;;;;0.35;100.00;98317.41;5116322;28;20035;-63
2023/12/20 02:32:20;;;;;;;2.57;1.60;;;;;;;1.15;100.00;98433.91;5116368;28;20431;-63
2023/12/20 02:34:48;;;;;;;14.00;4.63;;;;;;;1.10;100.00;98403.91;5116211;28;20885;-64
2023/12/20 02:37:13;;;;;;;3.60;1.70;;;;;;;1.08;100.00;98413.75;5116062;28;20269;-64
2023/12/20 02:39:39;;;;;;;9.93;2.53;;;;;;;1.11;100.00;98400.31;5114221;28;20369;-65
2023/12/20 02:42:04;;;;;;;4.77;1.83;;;;;;;1.11;100.00;98411.63;5114497;28;20077;-62
2023/12/20 02:44:30;;;;;;;2.50;1.30;;;;;;;0.96;100.00;98397.50;5115875;28;20046;-62
2023/12/20 02:46:56;;;;;;;4.03;1.40;;;;;;;0.87;100.00;98390.59;5115757;28;20075;-62
2023/12/20 02:49:21;;;;;;;5.03;1.90;;;;;;;0.98;100.00;98410.44;5115760;28;20043;-64
2023/12/20 02:51:47;;;;;;;6.27;1.73;;;;;;;1.00;100.00;98413.72;5115668;28;20071;-65
2023/12/20 02:54:12;;;;;;;5.73;1.83;;;;;;;0.88;100.00;98394.88;5115574;28;20470;-65
2023/12/20 02:56:38;;;;;;;2.13;1.60;;;;;;;0.95;100.00;98411.59;5114161;28;20496;-64
2023/12/20 02:59:05;;;;;;;4.07;1.63;;;;;;;0.97;100.00;98408.81;5115232;28;20042;-63
2023/12/20 03:01:31;;;;;;;3.17;1.70;;;;;;;1.10;100.00;98414.41;5115565;28;20192;-62
2023/12/20 03:03:57;;;;;;;3.07;1.43;;;;;;;1.08;100.00;98411.94;5115441;28;20759;-63
2023/12/20 03:06:23;;;;;;;9.63;1.90;;;;;;;1.00;100.00;98387.53;5115116;28;20039;-62
2023/12/20 03:08:49;;;;;;;3.43;1.67;;;;;;;0.98;100.00;98395.53;5115273;28;20031;-64
2023/12/20 03:11:14;;;;;;;4.77;1.80;;;;;;;1.11;100.00;98411.63;5115128;28;20042;-63
2023/12/20 03:13:40;;;;;;;5.03;1.57;;;;;;;1.04;100.00;98399.31;5115635;28;20027;-64
2023/12/20 03:16:12;;;;;;;3.67;1.77;;;;;;;1.02;100.00;98396.88;5115005;28;20058;-62
2023/12/20 03:18:41;;;;;;;6.13;1.97;;;;;;;1.16;100.00;98413.78;5115466;28;20482;-63
2023/12/20 03:21:06;;;;;;;6.30;3.15;;;;;;;0.83;100.00;98356.03;5115127;28;20277;-62
2023/12/20 03:23:33;;;;;;;3.67;1.60;;;;;;;0.85;100.00;98359.28;5114687;28;20065;-63
2023/12/20 03:25:59;;;;;;;2.47;1.53;;;;;;;1.04;100.00;98375.75;5115015;28;20486;-62
2023/12/20 03:28:26;;;;;;;5.10;1.70;;;;;;;1.03;100.00;98371.47;5114068;28;20269;-66
2023/12/20 03:30:52;;;;;;;6.23;1.93;;;;;;;1.17;100.00;98395.28;5115094;28;20639;-62
2023/12/20 03:33:17;;;;;;;2.60;1.63;;;;;;;1.03;100.00;98366.22;5114813;28;20254;-62
2023/12/20 03:35:43;;;;;;;5.40;2.03;;;;;;;1.09;100.00;98391.78;5114332;28;20046;-62
2023/12/20 03:38:09;;;;;;;1.93;1.50;;;;;;;1.15;100.00;98401.63;5114967;28;20063;-62
2023/12/20 03:40:34;;;;;;;4.00;1.60;;;;;;;1.10;100.00;98378.53;5115521;28;20486;-64
2023/12/20 03:43:01;;;;;;;3.80;2.00;;;;;;;1.13;100.00;98393.13;5115070;28;20265;-63
2023/12/20 03:45:26;;;;;;;4.43;1.60;;;;;;;1.18;100.00;98388.22;5115164;28;20035;-63
2023/12/20 03:47:56;;;;;;;5.50;1.30;;;;;;;1.14;100.00;98373.78;5114669;28;20730;-62
2023/12/20 03:50:26;;;;;;;6.63;2.80;;;;;;;1.08;100.00;98370.00;5114640;28;20064;-64
2023/12/20 03:52:52;;;;;;;8.43;3.33;;;;;;;1.13;100.00;98378.19;5113230;28;20762;-64
2023/12/20 03:55:18;;;;;;;5.00;1.50;;;;;;;1.21;100.00;98390.53;5113256;28;20266;-63
2023/12/20 03:57:44;;;;;;;6.93;1.70;;;;;;;1.13;100.00;98377.38;5114222;28;20455;-63
2023/12/20 04:00:10;;;;;;;5.93;1.60;;;;;;;1.30;100.00;98393.97;5114223;28;20087;-63
2023/12/20 04:02:37;;;;;;;2.80;1.97;;;;;;;1.23;100.00;98368.41;5114227;28;20035;-62
2023/12/20 04:05:02;;;;;;;4.87;2.37;;;;;;;1.35;100.00;98392.50;5114288;28;20266;-62
2023/12/20 04:07:29;;;;;;;5.93;1.60;;;;;;;1.26;100.00;98377.75;5114162;28;20406;-62
2023/12/20 04:09:55;;;;;;;1.63;1.47;;;;;;;1.26;100.00;98382.19;5114255;28;20359;-62
2023/12/20 04:12:20;;;;;;;7.37;2.80;;;;;;;1.20;100.00;98381.03;5114605;28;20080;-64
2023/12/20 04:14:46;;;;;;;5.77;1.90;;;;;;;0.99;100.00;98355.25;5114428;27;20117;-64
2023/12/20 04:17:13;;;;;;;3.40;1.53;;;;;;;1.04;100.00;98357.38;5113796;28;20062;-62
2023/12/20 04:19:39;;;;;;;3.90;1.60;;;;;;;1.14;100.00;98379.03;5113773;28;20058;-65
2023/12/20 04:22:05;;;;;;;4.00;1.90;;;;;;;1.20;100.00;98388.88;5114176;28;20278;-63
2023/12/20 04:24:30;;;;;;;2.27;1.43;;;;;;;1.30;100.00;98402.66;5113790;28;20272;-65
2023/12/20 04:26:56;;;;;;;2.07;1.37;;;;;;;1.32;100.00;98398.06;5114035;28;20034;-63
2023/12/20 04:29:21;;;;;;;6.03;1.97;;;;;;;1.26;100.00;98403.97;5113804;28;20031;-61
2023/12/20 04:31:47;;;;;;;7.80;2.77;;;;;;;1.23;100.00;98399.06;5113847;28;20038;-62
2023/12/20 04:34:12;;;;;;;3.07;1.63;;;;;;;1.23;100.00;98397.25;5112933;28;20436;-66
2023/12/20 04:36:38;;;;;;;3.87;1.50;;;;;;;0.71;100.00;98315.38;5115882;28;20035;-63
2023/12/20 04:39:03;;;;;;;4.37;1.87;;;;;;;1.18;100.00;98386.44;5114607;28;20035;-62
2023/12/20 04:41:29;;;;;;;4.77;1.50;;;;;;;1.19;100.00;98401.19;5113739;28;20027;-64
2023/12/20 04:43:55;;;;;;;3.03;1.70;;;;;;;1.20;100.00;98394.13;5112162;28;20027;-63
2023/12/20 04:46:20;;;;;;;3.80;1.53;;;;;;;1.14;100.00;98379.03;5113592;28;20413;-62
2023/12/20 04:48:47;;;;;;;4.07;1.30;;;;;;;1.12;100.00;98394.91;5112259;28;20455;-62
2023/12/20 04:51:12;;;;;;;6.83;1.63;;;;;;;1.25;100.00;98389.22;5113095;28;20122;-66
2023/12/20 04:53:38;;;;;;;6.20;1.43;;;;;;;1.28;100.00;98396.75;5112065;28;20750;-66
2023/12/20 04:56:03;;;;;;;4.83;1.50;;;;;;;1.24;100.00;98388.41;5113452;28;20066;-63
2023/12/20 04:58:29;;;;;;;5.87;2.67;;;;;;;1.32;100.00;98400.69;5112656;28;20043;-63
2023/12/20 05:00:55;;;;;;;10.63;2.40;;;;;;;1.31;100.00;98401.69;5112778;28;20082;-62
2023/12/20 05:03:20;;;;;;;2.77;1.50;;;;;;;1.41;100.00;98428.56;5112079;28;20031;-63
2023/12/20 05:05:46;;;;;;;4.50;1.40;;;;;;;1.43;100.00;98425.78;5112860;28;20068;-62
2023/12/20 05:08:11;;;;;;;3.30;1.83;;;;;;;1.35;100.00;98418.72;5112821;28;20043;-67
2023/12/20 05:10:37;;;;;;;4.80;1.70;;;;;;;1.21;100.00;98401.03;5113353;28;20180;-63
2023/12/20 05:13:02;;;;;;;2.57;1.40;;;;;;;1.44;100.00;98433.50;5113098;28;20507;-64
2023/12/20 05:15:32;;;;;;;4.10;2.07;;;;;;;1.34;100.00;98424.97;5114498;28;20044;-64
2023/12/20 05:17:58;;;;;;;2.50;1.43;;;;;;;1.30;100.00;98412.34;5116196;28;20047;-63
2023/12/20 05:20:23;;;;;;;4.67;2.43;;;;;;;1.31;100.00;98412.16;5117816;28;20299;-64
2023/12/20 05:22:49;;;;;;;4.10;1.57;;;;;;;1.32;100.00;98398.06;5114256;28;20031;-63
2023/12/20 05:25:15;;;;;;;2.53;1.47;;;;;;;1.36;100.00;98420.38;5099472;28;20047;-64
2023/12/20 05:27:40;;;;;;;4.53;1.60;;;;;;;1.41;100.00;98423.31;5106317;28;20043;-64
2023/12/20 05:30:07;;;;;;;4.73;2.20;;;;;;;1.44;100.00;98427.44;5112834;28;20506;-63
2023/12/20 05:32:33;;;;;;;6.90;2.27;;;;;;;1.39;100.00;98412.19;5116452;28;20043;-63
2023/12/20 05:34:59;;;;;;;3.87;1.70;;;;;;;1.42;100.00;98432.84;5115580;28;20277;-65
2023/12/20 05:37:24;;;;;;;4.37;1.83;;;;;;;1.27;100.00;98402.16;5112003;28;20325;-62
2023/12/20 05:39:50;;;;;;;5.00;1.67;;;;;;;1.43;100.00;98421.34;5112918;28;20406;-65
2023/12/20 05:42:15;;;;;;;6.37;1.87;;;;;;;1.38;100.00;98418.41;5113116;28;20509;-66
2023/12/20 05:44:41;;;;;;;6.00;2.37;;;;;;;1.32;100.00;98413.00;5112034;28;20039;-66
2023/12/20 05:47:07;;;;;;;3.40;1.53;;;;;;;1.39;100.00;98422.66;5113204;28;20046;-65
2023/12/20 05:49:32;;;;;;;5.63;2.00;;;;;;;1.38;100.00;98428.06;5106835;28;20401;-62
2023/12/20 05:51:58;;;;;;;6.37;1.70;;;;;;;1.34;100.00;98414.47;5102935;28;20047;-63
2023/12/20 05:54:23;;;;;;;5.47;2.20;;;;;;;1.40;100.00;98424.31;5101605;28;20067;-63
2023/12/20 05:56:50;;;;;;;5.27;2.77;;;;;;;1.37;100.00;98419.38;5101737;28;20073;-63
2023/12/20 05:59:16;;;;;;;5.17;1.87;;;;;;;1.45;100.00;98423.84;5105916;28;20032;-64
2023/12/20 06:01:41;;;;;;;3.87;1.73;;;;;;;1.27;100.00;98395.13;5102265;28;20276;-66
2023/12/20 06:04:07;;;;;;;7.73;1.90;;;;;;;1.26;100.00;98392.66;5099894;28;20037;-65
2023/12/20 06:06:32;;;;;;;3.40;1.57;;;;;;;1.30;100.00;98407.09;5105918;28;20062;-63
2023/12/20 06:08:58;;;;;;;4.97;1.80;;;;;;;1.15;100.00;98410.31;5102936;28;20105;-64
2023/12/20 06:11:23;;;;;;;3.33;1.57;;;;;;;1.16;100.00;98419.03;5100612;28;20085;-61
2023/12/20 06:13:51;;;;;;;3.00;1.50;;;;;;;1.05;100.00;98395.72;5104608;28;20469;-63
2023/12/20 06:16:18;;;;;;;2.88;1.70;;;;;;;1.13;100.00;98409.66;5103355;28;20044;-62
2023/12/20 06:18:43;;;;;;;4.77;2.37;;;;;;;0.97;100.00;98379.97;5097328;28;20036;-65
2023/12/20 06:21:12;;;;;;;9.10;2.13;;;;;;;1.04;100.00;98399.31;5101166;28;20270;-62
2023/12/20 06:23:38;;;;;;;4.82;2.53;;;;;;;1.25;100.00;98428.56;5103636;28;20036;-64
2023/12/20 06:26:04;;;;;;;5.83;1.73;;;;;;;1.17;100.00;98391.84;5099758;28;20024;-63
2023/12/20 06:28:30;;;;;;;9.33;3.23;;;;;;;1.35;100.00;98416.09;5100080;28;20027;-67
2023/12/20 06:30:56;;;;;;;7.43;1.87;;;;;;;1.09;100.00;98399.66;5102468;28;20483;-62
2023/12/20 06:33:22;;;;;;;4.17;1.70;;;;;;;1.15;100.00;98433.09;5109186;28;20075;-64
2023/12/20 06:35:48;;;;;;;4.10;1.73;;;;;;;1.09;100.00;98413.59;5112041;28;20711;-65
2023/12/20 06:38:14;;;;;;;7.27;2.47;;;;;;;0.96;100.00;98405.38;5112116;28;20486;-64
2023/12/20 06:40:40;;;;;;;4.70;2.80;;;;;;;0.93;100.00;98393.41;5105359;28;20296;-64
2023/12/20 06:43:06;;;;;;;8.73;2.13;;;;;;;1.11;100.00;98419.50;5092376;28;20062;-65
2023/12/20 06:45:32;;;;;;;2.63;1.90;;;;;;;1.00;100.00;98387.53;5092060;28;20044;-65
2023/12/20 06:47:58;;;;;;;4.33;1.80;;;;;;;1.34;100.00;98458.22;5091923;28;20302;-67
2023/12/20 06:50:24;;;;;;;7.93;1.83;;;;;;;1.37;100.00;98453.47;5091163;28;20301;-68
2023/12/20 06:52:49;;;;;;;7.90;2.00;;;;;;;1.40;100.00;98447.91;5091318;28;20124;-66
2023/12/20 06:55:15;;;;;;;3.77;1.97;;;;;;;1.32;100.00;98434.78;5091205;28;20262;-69
2023/12/20 06:57:41;;;;;;;3.53;1.80;;;;;;;1.31;100.00;98433.16;5091320;28;20460;-67
2023/12/20 07:00:08;;;;;;;4.23;2.90;;;;;;;1.45;100.00;98458.78;5091239;28;20043;-67
2023/12/20 07:02:34;;;;;;;4.70;1.90;;;;;;;1.34;100.00;98440.69;5108969;28;20441;-65
2023/12/20 07:05:00;;;;;;;7.23;2.63;;;;;;;1.14;100.00;98420.97;5092458;28;20269;-64
2023/12/20 07:07:26;;;;;;;3.70;2.20;;;;;;;1.25;100.00;98425.94;5090878;28;20466;-66
2023/12/20 07:09:51;;;;;;;2.60;1.70;;;;;;;1.47;100.00;98467.28;5090623;28;20048;-65
2023/12/20 07:12:19;;;;;;;5.73;1.87;;;;;;;1.41;100.00;98459.22;5091990;28;20262;-63
2023/12/20 07:14:45;;;;;;;3.43;1.90;;;;;;;1.39;100.00;98469.88;5093333;28;20232;-63
2023/12/20 07:17:13;;;;;;;5.30;2.47;;;;;;;1.26;100.00;98439.88;5094965;28;20336;-65
2023/12/20 07:19:39;;;;;;;4.07;1.70;;;;;;;1.49;100.00;98477.63;5094640;28;20305;-65
2023/12/20 07:22:06;;;;;;;5.13;1.90;;;;;;;1.39;100.00;98456.75;5095887;28;20355;-65
2023/12/20 07:24:32;;;;;;;4.07;1.77;;;;;;;1.38;100.00;98459.53;5114670;28;20354;-65
2023/12/20 07:26:59;;;;;;;5.40;1.60;;;;;;;1.47;100.00;98493.53;5114879;28;20327;-63
2023/12/20 07:29:25;;;;;;;5.17;1.77;;;;;;;1.33;100.00;98456.59;5114802;28;20139;-63
2023/12/20 07:31:52;;;;;;;4.23;1.60;;;;;;;1.45;100.00;98508.59;5115308;27;20261;-66
2023/12/20 07:34:17;;;;;;;6.67;2.07;;;;;;;1.47;100.00;98483.03;5115147;28;20035;-66
2023/12/20 07:36:43;;;;;;;4.20;1.70;;;;;;;1.24;100.00;98448.72;5114683;28;20296;-65
2023/12/20 07:39:09;;;;;;;5.87;1.57;;;;;;;1.39;100.00;98483.00;5114812;27;20119;-65
2023/12/20 07:41:35;;;;;;;6.20;1.60;;;;;;;1.21;100.00;98469.19;5114457;28;20036;-69
2023/12/20 07:44:01;;;;;;;8.03;1.87;;;;;;;1.59;100.00;98508.94;5114482;28;20269;-70
2023/12/20 07:46:26;;;;;;;3.37;1.67;;;;;;;1.59;100.00;98503.69;5114728;28;20122;-67
2023/12/20 07:48:52;;;;;;;3.03;1.53;;;;;;;1.58;100.00;98509.94;5111197;28;20130;-64
2023/12/20 07:51:18;;;;;;;5.23;1.70;;;;;;;1.45;100.00;98513.84;5111368;28;20122;-66
2023/12/20 07:53:43;;;;;;;6.33;2.30;;;;;;;1.48;100.00;98513.53;5114318;28;20414;-66
2023/12/20 07:56:19;;;;;;;2.70;1.37;;;;;;;1.59;100.00;98520.25;5113019;28;20080;-70
2023/12/20 07:58:45;;;;;;;3.20;1.53;;;;;;;1.63;100.00;98520.75;5114129;28;20032;-65
2023/12/20 08:01:12;;;;;;;5.37;1.97;;;;;;;1.50;100.00;98495.81;5114084;27;20356;-67
2023/12/20 08:03:38;;;;;;;6.03;1.53;;;;;;;1.59;100.00;98515.03;5114115;28;20265;-67
2023/12/20 08:06:04;;;;;;;5.23;1.70;;;;;;;1.49;100.00;98503.84;5112852;28;20855;-67
2023/12/20 08:08:30;;;;;;;5.03;1.90;;;;;;;1.45;100.00;98505.16;5112712;28;20264;-64
2023/12/20 08:10:57;;;;;;;3.33;1.67;;;;;;;1.58;100.00;98534.38;5114175;28;20035;-68
2023/12/20 08:13:25;;;;;;;6.10;1.90;;;;;;;1.52;100.00;98548.94;5103971;28;20139;-64
2023/12/20 08:15:55;;;;;;;7.38;1.60;;;;;;;1.65;100.00;98556.34;5105360;28;20286;-65
2023/12/20 08:18:22;;;;;;;2.90;1.60;;;;;;;1.49;100.00;98536.16;5104531;28;20097;-64
2023/12/20 08:20:48;;;;;;;2.70;1.40;;;;;;;1.48;99.46;98533.69;5103915;28;20294;-63
2023/12/20 08:23:15;;;;;;;6.17;1.80;;;;;;;1.44;100.00;98548.91;5103865;28;20309;-64
2023/12/20 08:25:41;;;;;;;7.00;2.00;;;;;;;1.43;100.00;98528.91;5096776;28;20273;-63
2023/12/20 08:28:06;;;;;;;1.93;1.10;;;;;;;1.64;100.00;98562.59;5101832;28;20765;-65
2023/12/20 08:30:32;;;;;;;7.10;2.57;;;;;;;1.61;100.00;98569.94;5102085;27;20036;-65
2023/12/20 08:33:01;;;;;;;5.47;1.60;;;;;;;1.64;100.00;98569.63;5104152;28;20034;-70
2023/12/20 08:35:26;;;;;;;5.13;1.80;;;;;;;1.61;100.00;98575.19;5098696;28;20276;-65
2023/12/20 08:37:52;;;;;;;8.13;2.10;;;;;;;1.45;100.00;98557.63;5104004;28;20031;-65
2023/12/20 08:40:17;;;;;;;4.00;1.93;;;;;;;1.61;100.00;98578.66;5101089;28;20036;-65
2023/12/20 08:42:43;;;;;;;8.97;2.90;;;;;;;1.62;100.00;98575.03;5102389;28;20036;-63
2023/12/20 08:45:10;;;;;;;4.53;1.73;;;;;;;1.60;100.00;98584.06;5103926;28;20040;-65
2023/12/20 08:47:35;;;;;;;3.20;1.50;;;;;;;1.37;100.00;98547.91;5101268;28;20479;-66
2023/12/20 08:50:03;;;;;;;3.03;1.70;;;;;;;1.47;100.00;98566.97;5102340;28;20270;-64
2023/12/20 08:52:30;;;;;;;5.50;1.80;;;;;;;1.50;100.00;98574.53;5103891;28;20410;-63
2023/12/20 08:54:56;;;;;;;4.43;1.60;;;;;;;1.24;100.00;98553.59;5098815;28;20274;-65
2023/12/20 08:57:25;;;;;;;7.20;1.93;;;;;;;1.61;100.00;98604.88;5101598;28;20118;-68
2023/12/20 08:59:51;;;;;;;7.97;1.93;;;;;;;1.53;100.00;98595.19;5102972;28;20043;-65
2023/12/20 09:02:17;;;;;;;4.23;1.60;;;;;;;1.46;100.00;98596.81;5100366;28;20365;-65
2023/12/20 09:04:43;;;;;;;6.13;2.53;;;;;;;1.48;100.00;98600.09;5100353;28;20039;-64
2023/12/20 09:07:25;;;;;;;5.47;2.00;;;;;;;1.59;100.00;98609.47;5099246;28;20032;-66
2023/12/20 09:09:52;;;;;;;4.27;1.77;;;;;;;1.21;100.00;98568.81;5102962;28;20372;-63
2023/12/20 09:12:19;;;;;;;6.47;3.37;;;;;;;1.53;100.00;98621.41;5103382;28;20341;-67
2023/12/20 09:14:45;;;;;;;5.40;2.03;;;;;;;1.48;100.00;98602.72;5104615;28;20274;-66
2023/12/20 09:17:16;;;;;;;3.13;1.90;;;;;;;1.58;100.00;98622.75;5103058;28;20290;-66
2023/12/20 09:19:41;;;;;;;2.17;1.40;;;;;;;1.37;100.00;98600.34;5103054;28;20293;-65
2023/12/20 09:22:09;;;;;;;6.07;1.60;;;;;;;1.53;100.00;98620.59;5102614;28;20649;-67
2023/12/20 09:24:35;;;;;;;3.97;1.70;;;;;;;1.45;100.00;98591.72;5102927;28;20320;-66
2023/12/20 09:27:01;;;;;;;4.57;1.33;;;;;;;1.53;100.00;98645.03;5103288;28;20282;-67
2023/12/20 09:29:26;;;;;;;3.97;1.50;;;;;;;1.57;100.00;98642.09;5102818;28;20495;-69
2023/12/20 09:31:52;;;;;;;6.20;1.70;;;;;;;1.55;100.00;98629.94;5098752;28;20039;-64
2023/12/20 09:34:17;;;;;;;7.50;2.67;;;;;;;1.58;100.00;98643.72;5102004;28;20126;-66
2023/12/20 09:36:46;;;;;;;10.20;2.00;;;;;;;1.45;100.00;98631.88;5102185;28;20039;-64
2023/12/20 09:39:23;;;;;;;2.77;1.53;;;;;;;1.52;100.00;98640.75;5105245;28;20490;-66
2023/12/20 09:42:01;;;;;;;3.87;1.60;;;;;;;1.26;100.00;98590.13;5107130;28;20273;-66
2023/12/20 09:44:27;;;;;;;3.33;2.07;;;;;;;1.52;100.00;98656.50;5105879;28;20270;-66
2023/12/20 09:46:54;;;;;;;10.40;1.83;;;;;;;1.59;100.00;98666.38;5099879;28;20752;-66
2023/12/20 09:49:21;;;;;;;8.17;1.73;;;;;;;1.41;100.00;98654.13;5101832;28;20094;-68
2023/12/20 09:51:47;;;;;;;4.37;1.60;;;;;;;1.59;100.00;98682.94;5082443;28;20720;-70
2023/12/20 09:54:17;;;;;;;5.00;2.30;;;;;;;1.39;100.00;98648.22;5102403;28;20293;-68
2023/12/20 09:56:43;;;;;;;11.20;2.37;;;;;;;1.48;100.00;98664.84;5100851;28;20297;-68
2023/12/20 09:59:08;;;;;;;5.20;2.33;;;;;;;1.47;100.00;98663.19;5101403;28;20320;-66
2023/12/20 10:01:36;;;;;;;7.77;2.00;;;;;;;1.60;100.00;98686.38;5107604;28;20092;-67
2023/12/20 10:04:08;;;;;;;2.70;1.60;;;;;;;1.51;100.00;98683.72;5102491;28;20034;-66
2023/12/20 10:06:36;;;;;;;9.33;2.03;;;;;;;1.57;100.00;98703.25;5106752;28;20258;-67
2023/12/20 10:09:02;;;;;;;5.90;2.30;;;;;;;1.40;100.00;98681.34;5099700;28;20772;-66
2023/12/20 10:11:28;;;;;;;3.50;1.90;;;;;;;1.46;100.00;98687.78;5102745;28;20261;-68
2023/12/20 10:14:00;;;;;;;3.30;1.80;;;;;;;1.57;100.00;98711.13;5105903;28;20288;-66
2023/12/20 10:16:26;;;;;;;6.77;2.60;;;;;;;1.44;100.00;98698.41;5099968;28;20417;-66
2023/12/20 10:18:55;;;;;;;4.73;1.50;;;;;;;1.60;100.00;98721.31;5096814;28;20746;-65
2023/12/20 10:21:22;;;;;;;;;;;;;;;1.66;100.00;98709.34;5094939;28;20050;-65
2023/12/20 10:23:49;;;;;;;6.53;1.87;;;;;;;1.61;100.00;98704.56;5091463;28;19916;-68
2023/12/20 10:26:22;;;;;;;3.37;1.60;;;;;;;1.59;100.00;98713.59;5091451;28;20270;-70
2023/12/20 10:28:53;;;;;;;3.53;1.70;;;;;;;1.34;100.00;98689.81;5091566;28;20796;-76
2023/12/20 10:31:33;;;;;;;7.27;2.03;;;;;;;1.67;100.00;98759.06;5091525;28;20289;-74
2023/12/20 10:34:00;;;;;;;5.73;1.63;;;;;;;1.50;100.00;98715.34;5105746;28;20629;-72
2023/12/20 10:36:27;;;;;;;7.70;2.57;;;;;;;1.62;100.00;98744.75;5111958;28;20276;-70
2023/12/20 10:38:55;;;;;;;5.77;1.90;;;;;;;1.51;100.00;98733.56;5111739;28;20289;-70
2023/12/20 10:41:28;;;;;;;3.93;1.83;;;;;;;1.51;100.00;98740.59;5111951;28;20648;-72
2023/12/20 10:44:02;;;;;;;4.07;1.80;;;;;;;1.37;100.00;98710.50;5112146;28;20285;-68
2023/12/20 10:46:29;;;;;;;5.80;2.10;;;;;;;1.59;100.00;98755.56;5111803;28;20277;-72
2023/12/20 10:48:56;;;;;;;5.00;1.63;;;;;;;1.42;100.00;98733.63;5115513;28;20740;-69
2023/12/20 10:51:26;;;;;;;3.40;2.10;;;;;;;1.59;100.00;98734.56;5115715;28;20289;-67
2023/12/20 10:53:53;;;;;;;7.13;1.90;;;;;;;1.68;100.00;98771.19;5109314;28;20369;-79
2023/12/20 10:56:21;;;;;;;7.80;2.70;;;;;;;1.54;100.00;98750.78;5095909;28;20276;-66
2023/12/20 10:58:49;;;;;;;5.97;2.10;;;;;;;1.59;100.00;98766.06;5094680;28;20276;-71
2023/12/20 11:01:16;;;;;;;3.90;1.85;;;;;;;1.45;100.00;98743.84;5095805;28;20649;-72
2023/12/20 11:03:52;;;;;;;6.07;2.47;;;;;;;1.61;100.00;98785.09;5101679;28;20056;-68
2023/12/20 11:06:24;;;;;;;8.27;1.90;;;;;;;1.62;100.00;98776.25;5102333;28;20649;-66
2023/12/20 11:08:49;;;;;;;6.13;2.07;;;;;;;1.61;100.00;98790.34;5104548;28;20281;-68
2023/12/20 11:11:28;;;;;;;5.87;2.00;;;;;;;1.45;100.00;98759.59;5103752;28;20273;-66
2023/12/20 11:13:59;;;;;;;5.25;2.53;;;;;;;1.36;100.00;98763.09;5104321;28;20040;-71
2023/12/20 11:16:25;;;;;;;6.13;1.77;;;;;;;1.53;100.00;98778.81;5104194;28;20055;-70
2023/12/20 11:18:51;;;;;;;4.27;1.70;;;;;;;1.62;100.00;98805.09;5104566;28;21125;-70
2023/12/20 11:21:16;;;;;;;8.10;1.83;;;;;;;1.61;100.00;98812.16;5099387;28;20314;-73
2023/12/20 11:23:42;;;;;;;6.10;2.07;;;;;;;1.47;100.00;98774.19;5111481;28;20270;-66
2023/12/20 11:26:08;;;;;;;8.10;1.73;;;;;;;1.58;100.00;98795.91;5115444;28;20483;-68
2023/12/20 11:28:34;;;;;;;15.17;2.37;;;;;;;1.54;100.00;98793.59;5115666;28;20114;-69
2023/12/20 11:31:01;;;;;;;4.43;2.30;;;;;;;1.50;100.00;98789.63;5115323;27;20043;-69